Terminal Aerodrome Forecast
Issued by NWS Nashville, TN

Home | Current Version | Previous Version | Text Only | Print | Product List | Glossary On
Versions: 1 2 3 4 5 6 7 8 9 10 11 12 13 14 15 16 17 18 19 20
000
FTUS44 KOHX 272300
TAFBNA
TAF
KBNA 272326Z 2800/2824 02008KT P6SM FEW150 SCT250
     FM280300 02005KT P6SM OVC080
     FM281400 05005KT P6SM OVC050
     FM281900 14006KT P6SM OVC080=

USA.gov is the U.S. government's official web portal to all federal, state and local government web resources and services.